createdAt,value
2018-12-16T00:01:39.374Z,99707.95
2018-12-16T00:04:07.534Z,99702.22
2018-12-16T00:06:35.132Z,99697.67
2018-12-16T00:09:03.390Z,99695.87
2018-12-16T00:11:31.628Z,99695.40
2018-12-16T00:13:59.279Z,99695.78
2018-12-16T00:16:28.255Z,99696.70
2018-12-16T00:18:55.780Z,99696.27
2018-12-16T00:21:23.347Z,99706.59
2018-12-16T00:23:51.263Z,99706.54
2018-12-16T00:26:19.418Z,99702.56
2018-12-16T00:28:48.582Z,99711.63
2018-12-16T00:31:16.505Z,99715.11
2018-12-16T00:33:44.065Z,99712.89
2018-12-16T00:36:12.599Z,99713.66
2018-12-16T00:38:40.537Z,99718.45
2018-12-16T00:41:08.071Z,99707.12
2018-12-16T00:43:35.562Z,99719.71
2018-12-16T00:46:03.491Z,99721.41
2018-12-16T00:48:34.868Z,99721.80
2018-12-16T00:51:03.132Z,99719.63
2018-12-16T00:53:31.130Z,99718.27
2018-12-16T00:55:58.661Z,99714.39
2018-12-16T00:58:27.390Z,99713.95
2018-12-16T01:00:58.138Z,99721.86
2018-12-16T01:03:26.650Z,99717.09
2018-12-16T01:05:54.434Z,99718.80
2018-12-16T01:08:22.471Z,99713.08
2018-12-16T01:10:50.847Z,99722.63
2018-12-16T01:13:19.883Z,99715.59
2018-12-16T01:15:48.813Z,99709.48
2018-12-16T01:18:16.356Z,99715.50
2018-12-16T01:20:45.340Z,99712.00
2018-12-16T01:23:13.562Z,99707.16
2018-12-16T01:25:41.229Z,99691.84
2018-12-16T01:28:08.770Z,99697.91
2018-12-16T01:30:36.762Z,99692.66
2018-12-16T01:33:04.336Z,99691.30
2018-12-16T01:35:32.834Z,99685.09
2018-12-16T01:38:00.863Z,99679.80
2018-12-16T01:40:28.417Z,99670.64
2018-12-16T01:42:56.699Z,99655.70
2018-12-16T01:45:26.656Z,99640.83
2018-12-16T01:47:54.285Z,99646.92
2018-12-16T01:50:22.542Z,99653.08
2018-12-16T01:52:50.507Z,99652.11
2018-12-16T01:55:18.587Z,99637.70
2018-12-16T01:57:46.150Z,99643.72
2018-12-16T02:00:13.762Z,99632.32
2018-12-16T02:02:41.770Z,99627.03
2018-12-16T02:05:10.108Z,99633.96
2018-12-16T02:07:37.655Z,99621.41
2018-12-16T02:10:05.186Z,99627.41
2018-12-16T02:12:33.100Z,99618.31
2018-12-16T02:15:00.655Z,99622.23
2018-12-16T02:17:28.227Z,99599.98
2018-12-16T02:19:55.740Z,99596.14
2018-12-16T02:22:24.393Z,99598.28
2018-12-16T02:24:51.903Z,99593.91
2018-12-16T02:27:19.421Z,99591.30
2018-12-16T02:29:46.961Z,99590.43
2018-12-16T02:32:14.922Z,99586.56
2018-12-16T02:34:42.459Z,99572.64
2018-12-16T02:37:10.063Z,99563.41
2018-12-16T02:39:37.592Z,99567.13
2018-12-16T02:42:05.559Z,99554.42
2018-12-16T02:44:33.170Z,99548.27
2018-12-16T02:47:00.707Z,99533.86
2018-12-16T02:49:28.206Z,99523.39
2018-12-16T02:51:56.142Z,99519.45
2018-12-16T02:54:23.718Z,99514.22
2018-12-16T02:56:51.266Z,99512.44
2018-12-16T02:59:19.459Z,99512.85
2018-12-16T03:01:48.645Z,99508.83
2018-12-16T03:04:16.458Z,99503.59
2018-12-16T03:06:44.039Z,99491.36
2018-12-16T03:09:11.574Z,99482.20
2018-12-16T03:11:39.494Z,99470.80
2018-12-16T03:14:07.009Z,99469.48
2018-12-16T03:16:34.569Z,99462.78
2018-12-16T03:19:07.027Z,99452.25
2018-12-16T03:21:36.482Z,99459.50
2018-12-16T03:24:05.019Z,99464.19
2018-12-16T03:26:35.838Z,99467.14
2018-12-16T03:29:02.140Z,99456.05
2018-12-16T03:31:30.079Z,99455.06
2018-12-16T03:33:58.158Z,99440.50
2018-12-16T03:36:25.771Z,99435.19
2018-12-16T03:38:53.307Z,99433.44
2018-12-16T03:41:21.244Z,99425.48
2018-12-16T03:43:48.883Z,99425.73
2018-12-16T03:46:16.462Z,99427.73
2018-12-16T03:48:44.074Z,99420.70
2018-12-16T03:51:11.956Z,99419.27
2018-12-16T03:53:39.515Z,99422.66
2018-12-16T03:56:07.113Z,99422.97
2018-12-16T03:58:35.060Z,99407.63
2018-12-16T04:01:03.090Z,99402.70
2018-12-16T04:03:30.651Z,99400.78
2018-12-16T04:05:58.456Z,99397.16
2018-12-16T04:08:26.056Z,99389.58
2018-12-16T04:10:53.889Z,99380.27
2018-12-16T04:13:21.444Z,99375.80
2018-12-16T04:15:48.985Z,99384.97
2018-12-16T04:18:16.898Z,99389.77
2018-12-16T04:20:44.410Z,99384.90
2018-12-16T04:23:12.069Z,99384.90
2018-12-16T04:25:39.665Z,99384.35
2018-12-16T04:28:09.433Z,99386.04
2018-12-16T04:30:37.421Z,99386.97
2018-12-16T04:33:04.948Z,99390.45
2018-12-16T04:35:32.847Z,99386.80
2018-12-16T04:38:00.449Z,99382.88
2018-12-16T04:40:27.996Z,99384.11
2018-12-16T04:42:55.881Z,99380.11
2018-12-16T04:45:23.419Z,99389.67
2018-12-16T04:47:50.942Z,99380.05
2018-12-16T04:50:18.467Z,99380.42
2018-12-16T04:52:46.376Z,99388.73
2018-12-16T04:55:14.115Z,99381.36
2018-12-16T04:57:41.631Z,99377.88
2018-12-16T05:00:09.494Z,99374.39
2018-12-16T05:02:37.039Z,99373.18
2018-12-16T05:05:04.608Z,99367.25
2018-12-16T05:07:32.141Z,99372.55
2018-12-16T05:10:00.137Z,99373.34
2018-12-16T05:12:27.715Z,99369.23
2018-12-16T05:14:55.255Z,99371.19
2018-12-16T05:17:22.821Z,99371.02
2018-12-16T05:19:50.698Z,99372.87
2018-12-16T05:22:18.243Z,99369.48
2018-12-16T05:24:45.754Z,99374.34
2018-12-16T05:27:13.259Z,99365.23
2018-12-16T05:29:41.234Z,99361.69
2018-12-16T05:32:08.751Z,99360.99
2018-12-16T05:34:36.294Z,99351.83
2018-12-16T05:37:03.819Z,99361.48
2018-12-16T05:39:32.211Z,99348.06
2018-12-16T05:41:59.759Z,99352.13
2018-12-16T05:44:27.296Z,99353.05
2018-12-16T05:46:54.822Z,99351.42
2018-12-16T05:49:22.638Z,99355.45
2018-12-16T05:51:50.178Z,99354.66
2018-12-16T05:54:17.718Z,99361.69
2018-12-16T05:56:45.616Z,99360.45
2018-12-16T05:59:13.172Z,99348.82
2018-12-16T06:01:40.717Z,99360.92
2018-12-16T06:04:08.738Z,99360.06
2018-12-16T06:06:36.288Z,99368.37
2018-12-16T06:09:04.511Z,99364.44
2018-12-16T06:11:32.527Z,99360.98
2018-12-16T06:14:00.060Z,99374.16
2018-12-16T06:16:27.640Z,99380.25
2018-12-16T06:18:55.206Z,99384.63
2018-12-16T06:21:23.075Z,99384.31
2018-12-16T06:23:55.534Z,99375.30
2018-12-16T06:26:20.238Z,99374.44
2018-12-16T06:28:47.809Z,99371.00
2018-12-16T06:31:15.639Z,99377.98
2018-12-16T06:33:43.170Z,99374.16
2018-12-16T06:36:10.709Z,99375.85
2018-12-16T06:38:38.290Z,99375.05
2018-12-16T06:41:06.198Z,99372.84
2018-12-16T06:43:33.759Z,99368.06
2018-12-16T06:46:01.405Z,99366.20
2018-12-16T06:48:29.056Z,99357.97
2018-12-16T06:50:56.983Z,99356.66
2018-12-16T06:53:24.513Z,99360.97
2018-12-16T06:55:52.111Z,99360.52
2018-12-16T06:58:19.698Z,99368.76
2018-12-16T07:00:47.607Z,99364.77
2018-12-16T07:03:15.318Z,99363.91
2018-12-16T07:05:42.875Z,99366.08
2018-12-16T07:08:10.483Z,99362.66
2018-12-16T07:10:38.468Z,99364.28
2018-12-16T07:13:06.017Z,99374.22
2018-12-16T07:15:33.549Z,99369.52
2018-12-16T07:18:01.114Z,99377.86
2018-12-16T07:20:29.297Z,99368.69
2018-12-16T07:22:57.443Z,99373.83
2018-12-16T07:25:25.000Z,99375.53
2018-12-16T07:27:52.557Z,99378.94
2018-12-16T07:30:20.552Z,99375.02
2018-12-16T07:32:48.942Z,99372.84
2018-12-16T07:35:16.493Z,99375.84
2018-12-16T07:37:44.490Z,99376.70
2018-12-16T07:40:12.084Z,99376.16
2018-12-16T07:42:39.750Z,99380.47
2018-12-16T07:45:07.746Z,99378.72
2018-12-16T07:47:35.291Z,99378.61
2018-12-16T07:50:02.853Z,99373.80
2018-12-16T07:52:30.450Z,99367.38
2018-12-16T07:54:59.295Z,99370.47
2018-12-16T07:57:26.799Z,99373.92
2018-12-16T07:59:54.539Z,99376.64
2018-12-16T08:02:22.623Z,99378.02
2018-12-16T08:04:50.156Z,99384.56
2018-12-16T08:07:17.722Z,99387.12
2018-12-16T08:09:46.969Z,99392.36
2018-12-16T08:12:14.567Z,99397.50
2018-12-16T08:14:42.292Z,99397.05
2018-12-16T08:17:10.243Z,99397.98
2018-12-16T08:19:37.835Z,99407.14
2018-12-16T08:22:05.351Z,99401.11
2018-12-16T08:24:33.343Z,99400.28
2018-12-16T08:27:00.887Z,99391.50
2018-12-16T08:29:28.466Z,99391.11
2018-12-16T08:31:56.397Z,99399.80
2018-12-16T08:34:23.950Z,99396.34
2018-12-16T08:36:51.479Z,99400.66
2018-12-16T08:39:19.551Z,99404.59
2018-12-16T08:41:47.099Z,99400.41
2018-12-16T08:44:15.552Z,99399.96
2018-12-16T08:46:43.392Z,99406.83
2018-12-16T08:49:11.891Z,99404.97
2018-12-16T08:51:39.457Z,99409.77
2018-12-16T08:54:07.453Z,99414.46
2018-12-16T08:56:35.838Z,99399.98
2018-12-16T08:59:03.390Z,99400.37
2018-12-16T09:01:32.121Z,99396.28
2018-12-16T09:03:59.941Z,99398.35
2018-12-16T09:06:27.496Z,99397.84
2018-12-16T09:08:56.052Z,99398.60
2018-12-16T09:11:23.580Z,99400.30
2018-12-16T09:13:52.084Z,99403.30
2018-12-16T09:16:20.616Z,99406.23
2018-12-16T09:18:50.406Z,99413.48
2018-12-16T09:21:18.267Z,99412.94
2018-12-16T09:23:45.883Z,99410.25
2018-12-16T09:26:13.430Z,99409.64
2018-12-16T09:28:41.483Z,99417.33
2018-12-16T09:31:10.603Z,99419.44
2018-12-16T09:33:38.116Z,99417.20
2018-12-16T09:36:06.136Z,99417.20
2018-12-16T09:38:34.684Z,99415.79
2018-12-16T09:41:03.553Z,99414.03
2018-12-16T09:43:31.584Z,99413.87
2018-12-16T09:46:01.286Z,99418.05
2018-12-16T09:48:28.835Z,99408.33
2018-12-16T09:50:57.383Z,99409.50
2018-12-16T09:53:24.919Z,99397.09
2018-12-16T09:55:52.594Z,99400.92
2018-12-16T09:58:20.620Z,99400.92
2018-12-16T10:00:49.351Z,99398.92
2018-12-16T10:03:17.494Z,99400.44
2018-12-16T10:05:50.201Z,99399.92
2018-12-16T10:08:17.787Z,99398.92
2018-12-16T10:10:45.312Z,99395.27
2018-12-16T10:13:13.318Z,99386.34
2018-12-16T10:15:40.889Z,99393.52
2018-12-16T10:18:08.428Z,99382.53
2018-12-16T10:20:36.316Z,99388.16
2018-12-16T10:23:04.667Z,99389.41
2018-12-16T10:25:32.223Z,99383.98
2018-12-16T10:28:01.814Z,99386.09
2018-12-16T10:30:31.902Z,99383.29
2018-12-16T10:32:59.434Z,99385.29
2018-12-16T10:35:30.839Z,99385.22
2018-12-16T10:37:58.388Z,99376.97
2018-12-16T10:40:28.258Z,99385.67
2018-12-16T10:42:57.551Z,99375.55
2018-12-16T10:45:25.798Z,99380.35
2018-12-16T10:47:54.380Z,99386.36
2018-12-16T10:50:22.413Z,99383.97
2018-12-16T10:52:49.979Z,99379.48
2018-12-16T10:55:17.633Z,99372.92
2018-12-16T10:57:46.598Z,99378.09
2018-12-16T11:00:18.235Z,99381.93
2018-12-16T11:02:46.618Z,99375.75
2018-12-16T11:05:15.134Z,99387.03
2018-12-16T11:07:42.690Z,99387.97
2018-12-16T11:10:10.230Z,99378.30
2018-12-16T11:12:38.509Z,99383.09
2018-12-16T11:15:06.057Z,99383.55
2018-12-16T11:17:33.626Z,99392.66
2018-12-16T11:20:01.457Z,99386.10
2018-12-16T11:22:28.994Z,99385.62
2018-12-16T11:24:56.569Z,99383.86
2018-12-16T11:27:24.571Z,99383.41
2018-12-16T11:29:52.477Z,99383.30
2018-12-16T11:32:20.812Z,99385.85
2018-12-16T11:34:48.695Z,99382.22
2018-12-16T11:37:18.102Z,99377.96
2018-12-16T11:39:45.683Z,99377.61
2018-12-16T11:42:13.725Z,99376.52
2018-12-16T11:44:41.522Z,99375.52
2018-12-16T11:47:09.661Z,99375.41
2018-12-16T11:49:37.527Z,99379.45
2018-12-16T11:52:05.231Z,99373.14
2018-12-16T11:54:33.831Z,99361.86
2018-12-16T11:57:01.770Z,99371.98
2018-12-16T11:59:30.346Z,99377.23
2018-12-16T12:01:57.923Z,99374.16
2018-12-16T12:04:25.938Z,99374.60
2018-12-16T12:06:54.452Z,99373.67
2018-12-16T12:09:24.215Z,99368.80
2018-12-16T12:11:52.263Z,99363.95
2018-12-16T12:14:20.523Z,99362.09
2018-12-16T12:16:48.519Z,99352.34
2018-12-16T12:19:16.440Z,99350.02
2018-12-16T12:21:43.988Z,99342.44
2018-12-16T12:24:11.603Z,99349.58
2018-12-16T12:26:40.236Z,99351.42
2018-12-16T12:29:08.730Z,99352.02
2018-12-16T12:31:36.274Z,99344.41
2018-12-16T12:34:04.230Z,99344.03
2018-12-16T12:36:31.765Z,99342.83
2018-12-16T12:38:59.324Z,99346.84
2018-12-16T12:41:27.612Z,99347.78
2018-12-16T12:43:55.141Z,99352.66
2018-12-16T12:46:22.731Z,99348.72
2018-12-16T12:48:52.100Z,99349.17
2018-12-16T12:51:19.712Z,99354.05
2018-12-16T12:53:47.311Z,99359.00
2018-12-16T12:56:17.381Z,99358.13
2018-12-16T12:58:46.962Z,99355.06
2018-12-16T13:01:15.095Z,99354.13
2018-12-16T13:03:43.620Z,99357.23
2018-12-16T13:06:13.301Z,99356.67
2018-12-16T13:08:41.719Z,99345.91
2018-12-16T13:11:10.460Z,99347.97
2018-12-16T13:13:39.801Z,99348.73
2018-12-16T13:16:08.382Z,99347.83
2018-12-16T13:18:37.657Z,99344.64
2018-12-16T13:21:06.823Z,99353.75
2018-12-16T13:23:35.700Z,99347.27
2018-12-16T13:26:03.753Z,99350.83
2018-12-16T13:28:31.415Z,99358.14
2018-12-16T13:30:58.950Z,99358.83
2018-12-16T13:33:27.619Z,99366.52
2018-12-16T13:35:56.235Z,99356.69
2018-12-16T13:38:24.462Z,99356.16
2018-12-16T13:40:53.235Z,99359.05
2018-12-16T13:43:20.807Z,99366.30
2018-12-16T13:45:49.268Z,99369.52
2018-12-16T13:48:18.091Z,99369.74
2018-12-16T13:50:45.632Z,99365.80
2018-12-16T13:53:13.210Z,99370.01
2018-12-16T13:55:42.060Z,99374.25
2018-12-16T13:58:09.671Z,99369.93
2018-12-16T14:00:38.111Z,99381.30
2018-12-16T14:03:07.655Z,99376.98
2018-12-16T14:05:36.321Z,99373.88
2018-12-16T14:08:03.928Z,99384.01
2018-12-16T14:10:31.793Z,99383.94
2018-12-16T14:12:59.490Z,99379.12
2018-12-16T14:15:27.226Z,99379.12
2018-12-16T14:17:54.817Z,99378.30
2018-12-16T14:20:23.907Z,99372.75
2018-12-16T14:22:51.750Z,99385.88
2018-12-16T14:25:19.618Z,99392.98
2018-12-16T14:27:47.170Z,99392.08
2018-12-16T14:30:15.094Z,99394.59
2018-12-16T14:32:42.635Z,99392.83
2018-12-16T14:35:10.975Z,99392.27
2018-12-16T14:37:39.743Z,99397.90
2018-12-16T14:40:07.598Z,99394.44
2018-12-16T14:42:35.166Z,99393.50
2018-12-16T14:45:03.185Z,99395.27
2018-12-16T14:47:31.726Z,99395.65
2018-12-16T14:49:59.344Z,99395.65
2018-12-16T14:52:27.211Z,99391.81
2018-12-16T14:54:55.359Z,99392.34
2018-12-16T14:57:22.912Z,99392.83
2018-12-16T14:59:51.820Z,99400.34
2018-12-16T15:02:19.455Z,99400.41
2018-12-16T15:04:48.016Z,99394.03
2018-12-16T15:07:16.015Z,99403.30
2018-12-16T15:09:43.546Z,99411.56
2018-12-16T15:12:12.259Z,99417.30
2018-12-16T15:14:40.160Z,99421.99
2018-12-16T15:17:11.041Z,99428.08
2018-12-16T15:19:38.614Z,99427.55
2018-12-16T15:22:06.485Z,99430.63
2018-12-16T15:24:34.672Z,99435.89
2018-12-16T15:27:03.451Z,99443.70
2018-12-16T15:29:31.579Z,99435.81
2018-12-16T15:32:02.731Z,99443.59
2018-12-16T15:34:30.494Z,99450.08
2018-12-16T15:36:59.105Z,99450.00
2018-12-16T15:39:26.705Z,99448.61
2018-12-16T15:41:54.344Z,99445.05
2018-12-16T15:44:22.219Z,99446.26
2018-12-16T15:46:49.796Z,99452.37
2018-12-16T15:49:18.807Z,99452.75
2018-12-16T15:51:47.367Z,99456.23
2018-12-16T15:54:16.088Z,99452.19
2018-12-16T15:56:44.281Z,99448.17
2018-12-16T15:59:13.308Z,99452.87
2018-12-16T16:01:40.890Z,99442.73
2018-12-16T16:04:08.592Z,99439.65
2018-12-16T16:06:37.591Z,99440.59
2018-12-16T16:09:05.171Z,99445.36
2018-12-16T16:11:32.739Z,99448.47
2018-12-16T16:14:00.699Z,99460.67
2018-12-16T16:16:29.129Z,99459.36
2018-12-16T16:18:57.659Z,99457.11
2018-12-16T16:21:26.497Z,99462.85
2018-12-16T16:23:54.081Z,99453.66
2018-12-16T16:26:22.295Z,99463.12
2018-12-16T16:28:50.236Z,99464.84
2018-12-16T16:31:17.844Z,99471.00
2018-12-16T16:33:45.479Z,99469.69
2018-12-16T16:36:13.470Z,99470.10
2018-12-16T16:38:42.084Z,99468.67
2018-12-16T16:41:11.148Z,99470.30
2018-12-16T16:43:43.737Z,99460.64
2018-12-16T16:46:14.314Z,99457.90
2018-12-16T16:48:44.028Z,99455.76
2018-12-16T16:51:11.989Z,99456.13
2018-12-16T16:53:39.540Z,99460.53
2018-12-16T16:56:07.091Z,99461.39
2018-12-16T16:58:34.951Z,99468.27
2018-12-16T17:01:02.541Z,99461.13
2018-12-16T17:03:30.101Z,99462.81
2018-12-16T17:06:04.870Z,99464.52
2018-12-16T17:08:33.855Z,99456.62
2018-12-16T17:11:01.592Z,99463.68
2018-12-16T17:13:30.563Z,99461.05
2018-12-16T17:15:58.459Z,99466.46
2018-12-16T17:18:28.246Z,99470.97
2018-12-16T17:20:56.418Z,99454.45
2018-12-16T17:23:24.793Z,99464.28
2018-12-16T17:25:52.375Z,99458.91
2018-12-16T17:28:22.329Z,99474.08
2018-12-16T17:30:49.863Z,99472.54
2018-12-16T17:33:17.417Z,99485.00
2018-12-16T17:35:45.339Z,99491.83
2018-12-16T17:38:12.955Z,99498.27
2018-12-16T17:40:40.507Z,99503.09
2018-12-16T17:43:08.480Z,99505.22
2018-12-16T17:45:37.513Z,99502.36
2018-12-16T17:48:05.083Z,99496.91
2018-12-16T17:50:33.568Z,99502.68
2018-12-16T17:53:01.127Z,99505.93
2018-12-16T17:55:29.726Z,99514.37
2018-12-16T17:57:58.287Z,99518.69
2018-12-16T18:00:26.904Z,99515.05
2018-12-16T18:02:54.487Z,99516.11
2018-12-16T18:05:22.352Z,99522.13
2018-12-16T18:07:49.924Z,99516.05
2018-12-16T18:10:18.073Z,99519.30
2018-12-16T18:12:46.736Z,99512.22
2018-12-16T18:15:14.323Z,99517.86
2018-12-16T18:17:42.847Z,99516.28
2018-12-16T18:20:10.743Z,99514.97
2018-12-16T18:22:38.361Z,99516.66
2018-12-16T18:25:05.901Z,99518.07
2018-12-16T18:27:34.394Z,99514.13
2018-12-16T18:30:02.955Z,99517.23
2018-12-16T18:32:30.495Z,99514.91
2018-12-16T18:34:58.549Z,99514.86
2018-12-16T18:37:26.343Z,99518.23
2018-12-16T18:39:53.901Z,99515.07
2018-12-16T18:42:22.047Z,99509.67
2018-12-16T18:44:49.576Z,99516.91
2018-12-16T18:47:17.132Z,99517.59
2018-12-16T18:49:46.856Z,99512.21
2018-12-16T18:52:14.562Z,99512.30
2018-12-16T18:54:42.961Z,99517.77
2018-12-16T18:57:11.583Z,99516.22
2018-12-16T18:59:39.113Z,99518.92
2018-12-16T19:02:06.682Z,99517.31
2018-12-16T19:04:35.179Z,99523.47
2018-12-16T19:07:04.459Z,99533.42
2018-12-16T19:09:33.459Z,99536.06
2018-12-16T19:12:01.917Z,99536.69
2018-12-16T19:14:32.535Z,99540.84
2018-12-16T19:17:00.334Z,99537.38
2018-12-16T19:19:28.345Z,99533.68
2018-12-16T19:21:56.676Z,99529.50
2018-12-16T19:24:25.641Z,99532.43
2018-12-16T19:26:58.148Z,99543.55
2018-12-16T19:29:22.776Z,99544.16
2018-12-16T19:31:50.595Z,99541.64
2018-12-16T19:34:18.227Z,99546.63
2018-12-16T19:36:45.809Z,99548.63
2018-12-16T19:39:13.825Z,99555.80
2018-12-16T19:41:41.403Z,99554.11
2018-12-16T19:44:10.093Z,99563.28
2018-12-16T19:46:38.093Z,99563.39
2018-12-16T19:49:05.667Z,99574.16
2018-12-16T19:51:35.720Z,99567.79
2018-12-16T19:54:05.791Z,99570.33
2018-12-16T19:56:35.303Z,99567.63
2018-12-16T19:59:04.187Z,99567.25
2018-12-16T20:01:32.298Z,99566.78
2018-12-16T20:06:06.237Z,99573.10
2018-12-16T20:08:34.167Z,99577.18
2018-12-16T20:11:02.635Z,99585.85
2018-12-16T20:13:31.030Z,99592.25
2018-12-16T20:16:01.588Z,99595.63
2018-12-16T20:18:29.297Z,99597.71
2018-12-16T20:20:58.060Z,99601.13
2018-12-16T20:23:27.618Z,99600.13
2018-12-16T20:25:58.060Z,99602.59
2018-12-16T20:28:25.643Z,99597.95
2018-12-16T20:30:53.592Z,99598.23
2018-12-16T20:33:24.866Z,99605.11
2018-12-16T20:35:52.419Z,99610.74
2018-12-16T20:38:21.489Z,99617.63
2018-12-16T20:40:49.347Z,99619.63
2018-12-16T20:43:16.915Z,99628.13
2018-12-16T20:45:44.870Z,99632.21
2018-12-16T20:48:12.431Z,99630.20
2018-12-16T20:50:39.955Z,99636.53
2018-12-16T20:53:08.009Z,99633.10
2018-12-16T20:55:35.556Z,99634.09
2018-12-16T20:58:03.162Z,99635.09
2018-12-16T21:00:31.172Z,99637.03
2018-12-16T21:02:58.771Z,99636.84
2018-12-16T21:05:26.359Z,99628.41
2018-12-16T21:07:55.971Z,99633.21
2018-12-16T21:10:23.584Z,99625.78
2018-12-16T21:12:56.308Z,99632.05
2018-12-16T21:15:28.881Z,99625.95
2018-12-16T21:18:02.041Z,99628.89
2018-12-16T21:20:29.585Z,99628.41
2018-12-16T21:22:57.151Z,99636.05
2018-12-16T21:25:25.661Z,99617.01
2018-12-16T21:27:55.459Z,99627.76
2018-12-16T21:30:23.630Z,99629.27
2018-12-16T21:32:52.357Z,99626.50
2018-12-16T21:35:22.529Z,99631.58
2018-12-16T21:37:50.099Z,99636.28
2018-12-16T21:40:17.667Z,99634.52
2018-12-16T21:42:46.242Z,99639.39
2018-12-16T21:45:15.072Z,99643.79
2018-12-16T21:47:42.611Z,99646.04
2018-12-16T21:50:12.690Z,99650.29
2018-12-16T21:52:41.407Z,99654.55
2018-12-16T21:55:10.105Z,99659.55
2018-12-16T21:57:37.646Z,99660.69
2018-12-16T22:00:05.604Z,99657.42
2018-12-16T22:02:33.249Z,99664.30
2018-12-16T22:05:01.438Z,99665.06
2018-12-16T22:07:29.427Z,99661.04
2018-12-16T22:09:57.915Z,99662.66
2018-12-16T22:12:25.458Z,99664.28
2018-12-16T22:14:53.371Z,99659.95
2018-12-16T22:17:20.891Z,99659.95
2018-12-16T22:19:48.414Z,99659.95
2018-12-16T22:22:15.935Z,99657.84
2018-12-16T22:24:43.794Z,99652.69
2018-12-16T22:27:11.411Z,99654.08
2018-12-16T22:29:38.984Z,99653.41
2018-12-16T22:32:06.528Z,99658.84
2018-12-16T22:34:34.625Z,99660.38
2018-12-16T22:37:02.187Z,99670.02
2018-12-16T22:39:30.723Z,99677.40
2018-12-16T22:41:58.870Z,99677.79
2018-12-16T22:44:27.355Z,99679.53
2018-12-16T22:46:55.433Z,99681.16
2018-12-16T22:49:22.960Z,99673.97
2018-12-16T22:51:50.514Z,99669.58
2018-12-16T22:54:18.455Z,99672.70
2018-12-16T22:56:46.011Z,99663.98
2018-12-16T22:59:14.436Z,99664.84
2018-12-16T23:01:42.395Z,99663.84
2018-12-16T23:04:09.956Z,99668.08
2018-12-16T23:06:37.580Z,99657.50
2018-12-16T23:09:05.163Z,99659.05
2018-12-16T23:11:33.572Z,99661.91
2018-12-16T23:14:01.215Z,99656.80
2018-12-16T23:16:28.819Z,99657.44
2018-12-16T23:18:56.367Z,99647.14
2018-12-16T23:21:24.878Z,99647.75
2018-12-16T23:23:52.452Z,99641.30
2018-12-16T23:26:21.654Z,99639.18
2018-12-16T23:28:49.522Z,99638.28
2018-12-16T23:31:17.658Z,99645.36
2018-12-16T23:33:46.092Z,99650.33
2018-12-16T23:36:13.663Z,99653.95
2018-12-16T23:38:42.287Z,99656.58
2018-12-16T23:41:09.835Z,99658.88
2018-12-16T23:43:37.404Z,99658.12
2018-12-16T23:46:07.843Z,99656.55
2018-12-16T23:48:35.544Z,99653.16
2018-12-16T23:51:03.111Z,99655.41
2018-12-16T23:53:30.662Z,99648.23
2018-12-16T23:55:58.672Z,99669.16
2018-12-16T23:58:26.236Z,99672.95
